Time;durP1;ratioP1;P1;durP2;ratioP2;P2;SDS_P1;SDS_P2;PMS_P1;PMS_P2;Temp;Humidity;BMP_temperature;BMP_pressure;BME280_temperature;BME280_humidity;BME280_pressure;Samples;Min_cycle;Max_cycle;Signal;HPM_P1;HPM_P2
2023/05/27 00:01:21;;;;;;;;;;;12.90;99.90;;;;;;7325562;19;112359;-67
2023/05/27 00:03:48;;;;;;;;;;;12.80;99.90;;;;;;7337549;19;112468;-67
2023/05/27 00:06:15;;;;;;;;;;;12.80;99.90;;;;;;7342439;19;109801;-67
2023/05/27 00:08:42;;;;;;;;;;;12.80;99.90;;;;;;7335596;19;111170;-66
2023/05/27 00:11:09;;;;;;;;;;;12.70;99.90;;;;;;7334258;19;109915;-67
2023/05/27 00:13:36;;;;;;;;;;;12.70;99.90;;;;;;7336180;19;111236;-66
2023/05/27 00:16:04;;;;;;;;;;;12.70;99.90;;;;;;7334343;19;111911;-67
2023/05/27 00:18:32;;;;;;;;;;;12.70;99.90;;;;;;7335766;19;111419;-66
2023/05/27 00:21:00;;;;;;;;;;;12.60;99.90;;;;;;7335183;19;113810;-67
2023/05/27 00:23:27;;;;;;;;;;;12.60;99.90;;;;;;7335417;19;110941;-66
2023/05/27 00:25:54;;;;;;;;;;;12.50;99.90;;;;;;7337019;19;109386;-67
2023/05/27 00:28:21;;;;;;;;;;;12.50;99.90;;;;;;7338421;19;109534;-67
2023/05/27 00:30:48;;;;;;;;;;;12.40;99.90;;;;;;7332601;19;109421;-67
2023/05/27 00:33:15;;;;;;;;;;;12.50;99.90;;;;;;7334488;19;114298;-67
2023/05/27 00:35:42;;;;;;;;;;;12.40;99.90;;;;;;7332246;19;111576;-68
2023/05/27 00:38:09;;;;;;;;;;;12.40;99.90;;;;;;7332710;19;110535;-67
2023/05/27 00:40:36;;;;;;;;;;;12.30;99.90;;;;;;7331975;19;111347;-67
2023/05/27 00:43:03;;;;;;;;;;;12.30;99.90;;;;;;7331218;19;111812;-67
2023/05/27 00:45:30;;;;;;;;;;;12.20;99.90;;;;;;7334649;19;109939;-66
2023/05/27 00:47:59;;;;;;;;;;;12.20;99.90;;;;;;7335293;19;111145;-67
2023/05/27 00:50:29;;;;;;;;;;;12.10;99.90;;;;;;7339044;19;110724;-66
2023/05/27 00:52:56;;;;;;;;;;;12.10;99.90;;;;;;7332286;19;111558;-67
2023/05/27 00:55:23;;;;;;;;;;;12.10;99.90;;;;;;7334961;19;110140;-67
2023/05/27 00:57:53;;;;;;;;;;;12.10;99.90;;;;;;7335873;19;109773;-67
2023/05/27 01:00:23;;;;;;;;;;;12.00;99.90;;;;;;7334472;19;110072;-66
2023/05/27 01:02:50;;;;;;;;;;;12.00;99.90;;;;;;7335040;19;111160;-66
2023/05/27 01:05:18;;;;;;;;;;;11.90;99.90;;;;;;7333509;19;109841;-66
2023/05/27 01:07:45;;;;;;;;;;;11.90;99.90;;;;;;7333745;19;111419;-67
2023/05/27 01:10:19;;;;;;;;;;;11.90;99.90;;;;;;7340001;19;112492;-66
2023/05/27 01:13:16;;;;;;;;;;;11.90;99.90;;;;;;7333698;19;112851;-67
2023/05/27 01:15:43;;;;;;;;;;;11.80;99.90;;;;;;7333443;19;110133;-67
2023/05/27 01:18:12;;;;;;;;;;;11.80;99.90;;;;;;7333489;19;109662;-66
2023/05/27 01:20:40;;;;;;;;;;;11.70;99.90;;;;;;7335001;19;109727;-67
2023/05/27 01:23:09;;;;;;;;;;;11.70;99.90;;;;;;7329736;19;113310;-67
2023/05/27 01:25:36;;;;;;;;;;;11.60;99.90;;;;;;7331694;19;111269;-67
2023/05/27 01:28:03;;;;;;;;;;;11.60;99.90;;;;;;7333521;19;110232;-67
2023/05/27 01:30:30;;;;;;;;;;;11.60;99.90;;;;;;7334898;19;111745;-69
2023/05/27 01:33:19;;;;;;;;;;;11.60;99.90;;;;;;7340112;19;110358;-67
2023/05/27 01:35:53;;;;;;;;;;;11.60;99.90;;;;;;7332656;19;130570;-69
2023/05/27 01:38:21;;;;;;;;;;;11.50;99.90;;;;;;7334071;19;109694;-67
2023/05/27 01:40:49;;;;;;;;;;;11.50;99.90;;;;;;7333779;19;109780;-67
2023/05/27 01:43:17;;;;;;;;;;;11.60;99.90;;;;;;7333012;19;110307;-67
2023/05/27 01:45:44;;;;;;;;;;;11.50;99.90;;;;;;7335124;19;109837;-67
2023/05/27 01:48:11;;;;;;;;;;;11.50;99.90;;;;;;7330673;19;110637;-67
2023/05/27 01:50:39;;;;;;;;;;;11.40;99.90;;;;;;7331499;19;111199;-66
2023/05/27 01:53:06;;;;;;;;;;;11.40;99.90;;;;;;7327973;19;110517;-67
2023/05/27 01:55:33;;;;;;;;;;;11.40;99.90;;;;;;7340054;19;109832;-75
2023/05/27 01:58:00;;;;;;;;;;;11.40;99.90;;;;;;7333236;19;116282;-75
2023/05/27 02:00:27;;;;;;;;;;;11.30;99.90;;;;;;7334657;19;109983;-74
2023/05/27 02:02:54;;;;;;;;;;;11.30;99.90;;;;;;7330314;19;110698;-77
2023/05/27 02:05:21;;;;;;;;;;;11.20;99.90;;;;;;7334707;19;109920;-70
2023/05/27 02:07:48;;;;;;;;;;;11.20;99.90;;;;;;7332532;19;111965;-67
2023/05/27 02:10:15;;;;;;;;;;;11.10;99.90;;;;;;7332222;19;111271;-67
2023/05/27 02:12:42;;;;;;;;;;;11.10;99.90;;;;;;7333125;19;109491;-67
2023/05/27 02:15:10;;;;;;;;;;;11.10;99.90;;;;;;7332649;19;110500;-67
2023/05/27 02:17:37;;;;;;;;;;;11.00;99.90;;;;;;7334033;19;112685;-67
2023/05/27 02:20:05;;;;;;;;;;;11.00;99.90;;;;;;7332365;19;111295;-67
2023/05/27 02:22:32;;;;;;;;;;;11.00;99.90;;;;;;7332338;19;111402;-67
2023/05/27 02:24:59;;;;;;;;;;;11.00;99.90;;;;;;7326857;19;110538;-67
2023/05/27 02:27:26;;;;;;;;;;;10.90;99.90;;;;;;7333150;19;110763;-67
2023/05/27 02:29:53;;;;;;;;;;;10.90;99.90;;;;;;7331014;19;115177;-67
2023/05/27 02:32:20;;;;;;;;;;;10.90;99.90;;;;;;7328873;19;114801;-67
2023/05/27 02:34:47;;;;;;;;;;;10.80;99.90;;;;;;7330346;19;110634;-67
2023/05/27 02:37:14;;;;;;;;;;;10.80;99.90;;;;;;7332060;19;113428;-66
2023/05/27 02:39:41;;;;;;;;;;;10.80;99.90;;;;;;7335544;19;110239;-66
2023/05/27 02:42:08;;;;;;;;;;;10.70;99.90;;;;;;7330706;19;111016;-67
2023/05/27 02:44:35;;;;;;;;;;;10.70;99.90;;;;;;7331601;19;109486;-67
2023/05/27 02:47:03;;;;;;;;;;;10.70;99.90;;;;;;7331097;19;110467;-68
2023/05/27 02:49:30;;;;;;;;;;;10.70;99.90;;;;;;7331764;19;112922;-67
2023/05/27 02:51:57;;;;;;;;;;;10.60;99.90;;;;;;7331911;19;110296;-67
2023/05/27 02:54:24;;;;;;;;;;;10.60;99.90;;;;;;7331737;19;110422;-67
2023/05/27 02:56:51;;;;;;;;;;;10.60;99.90;;;;;;7330907;19;110542;-67
2023/05/27 02:59:18;;;;;;;;;;;10.60;99.90;;;;;;7337792;19;109935;-67
2023/05/27 03:01:45;;;;;;;;;;;10.50;99.90;;;;;;7344534;19;110198;-68
2023/05/27 03:04:12;;;;;;;;;;;10.50;99.90;;;;;;7339268;19;110272;-67
2023/05/27 03:06:40;;;;;;;;;;;10.50;99.90;;;;;;7338815;19;111244;-67
2023/05/27 03:09:07;;;;;;;;;;;10.50;99.90;;;;;;7339544;19;111745;-67
2023/05/27 03:11:35;;;;;;;;;;;10.40;99.90;;;;;;7337098;19;109315;-67
2023/05/27 03:14:02;;;;;;;;;;;10.40;99.90;;;;;;7338469;19;109571;-75
2023/05/27 03:16:30;;;;;;;;;;;10.40;99.90;;;;;;7340799;19;110270;-72
2023/05/27 03:18:57;;;;;;;;;;;10.40;99.90;;;;;;7339104;19;109584;-78
2023/05/27 03:21:24;;;;;;;;;;;10.30;99.90;;;;;;7341006;19;109600;-73
2023/05/27 03:23:51;;;;;;;;;;;10.20;99.90;;;;;;7335295;19;109831;-70
2023/05/27 03:26:18;;;;;;;;;;;10.20;99.90;;;;;;7337367;19;110024;-67
2023/05/27 03:28:46;;;;;;;;;;;10.10;99.90;;;;;;7334859;19;110314;-67
2023/05/27 03:31:13;;;;;;;;;;;10.10;99.90;;;;;;7337766;19;110593;-67
2023/05/27 03:33:40;;;;;;;;;;;10.10;99.90;;;;;;7338737;19;110842;-67
2023/05/27 03:36:08;;;;;;;;;;;10.10;99.90;;;;;;7336753;19;111164;-67
2023/05/27 03:38:35;;;;;;;;;;;10.00;99.90;;;;;;7338690;19;111499;-67
2023/05/27 03:41:02;;;;;;;;;;;10.00;99.90;;;;;;7338389;19;109653;-67
2023/05/27 03:43:29;;;;;;;;;;;10.00;99.90;;;;;;7339771;19;111946;-67
2023/05/27 03:45:56;;;;;;;;;;;10.10;99.90;;;;;;7338521;19;109909;-67
2023/05/27 03:48:24;;;;;;;;;;;10.00;99.90;;;;;;7334933;19;111148;-67
2023/05/27 03:50:51;;;;;;;;;;;10.00;99.90;;;;;;7337667;19;110941;-67
2023/05/27 03:53:18;;;;;;;;;;;10.00;99.90;;;;;;7336064;19;111905;-67
2023/05/27 03:55:45;;;;;;;;;;;10.00;99.90;;;;;;7338318;19;114289;-67
2023/05/27 03:58:13;;;;;;;;;;;10.10;99.90;;;;;;7335705;19;109669;-67
2023/05/27 04:00:41;;;;;;;;;;;10.00;99.90;;;;;;7340387;19;111053;-68
2023/05/27 04:03:08;;;;;;;;;;;10.00;99.90;;;;;;7334271;19;110184;-67
2023/05/27 04:05:36;;;;;;;;;;;10.00;99.90;;;;;;7342289;19;109662;-68
2023/05/27 04:08:04;;;;;;;;;;;10.00;99.90;;;;;;7337675;19;110468;-67
2023/05/27 04:10:31;;;;;;;;;;;9.90;99.90;;;;;;7331339;19;110962;-67
2023/05/27 04:12:58;;;;;;;;;;;10.00;99.90;;;;;;7336429;19;110169;-70
2023/05/27 04:15:26;;;;;;;;;;;10.00;99.90;;;;;;7336556;19;116944;-67
2023/05/27 04:17:53;;;;;;;;;;;10.00;99.90;;;;;;7336811;19;109548;-72
2023/05/27 04:20:20;;;;;;;;;;;10.00;99.90;;;;;;7336567;19;111302;-68
2023/05/27 04:22:47;;;;;;;;;;;10.00;99.90;;;;;;7334538;19;110132;-67
2023/05/27 04:25:14;;;;;;;;;;;10.00;99.90;;;;;;7335452;19;111843;-67
2023/05/27 04:27:42;;;;;;;;;;;10.00;99.90;;;;;;7343520;19;109868;-70
2023/05/27 04:30:09;;;;;;;;;;;10.10;99.90;;;;;;7334873;19;111487;-68
2023/05/27 04:32:37;;;;;;;;;;;10.20;99.90;;;;;;7337216;19;110813;-68
2023/05/27 04:35:07;;;;;;;;;;;10.20;99.90;;;;;;7335313;19;110790;-68
2023/05/27 04:37:36;;;;;;;;;;;10.30;99.90;;;;;;7336938;19;110259;-67
2023/05/27 04:40:08;;;;;;;;;;;10.30;99.90;;;;;;7332937;19;110134;-68
2023/05/27 04:42:36;;;;;;;;;;;10.30;99.90;;;;;;7334970;19;113874;-68
2023/05/27 04:45:03;;;;;;;;;;;10.40;99.90;;;;;;7333821;19;109381;-67
2023/05/27 04:47:30;;;;;;;;;;;10.40;99.90;;;;;;7335651;19;110258;-67
2023/05/27 04:50:00;;;;;;;;;;;10.40;99.90;;;;;;7334518;19;111116;-67
2023/05/27 04:52:27;;;;;;;;;;;10.40;99.90;;;;;;7333160;19;110425;-67
2023/05/27 04:54:54;;;;;;;;;;;10.50;99.90;;;;;;7330913;19;110181;-66
2023/05/27 04:57:21;;;;;;;;;;;10.50;99.90;;;;;;7333799;19;110423;-67
2023/05/27 05:02:34;;;;;;;;;;;10.50;99.90;;;;;;7331593;19;110436;-67
2023/05/27 05:05:02;;;;;;;;;;;10.50;99.90;;;;;;7333832;19;109672;-67
2023/05/27 05:07:30;;;;;;;;;;;10.50;99.90;;;;;;7334136;19;109842;-67
2023/05/27 05:09:57;;;;;;;;;;;10.60;99.90;;;;;;7334063;19;110576;-67
2023/05/27 05:12:25;;;;;;;;;;;10.60;99.90;;;;;;7336072;19;111746;-67
2023/05/27 05:14:52;;;;;;;;;;;10.70;99.90;;;;;;7334694;19;110707;-67
2023/05/27 05:17:23;;;;;;;;;;;10.70;99.90;;;;;;7332936;19;109558;-67
2023/05/27 05:19:51;;;;;;;;;;;10.80;99.90;;;;;;7335546;19;109935;-67
2023/05/27 05:22:19;;;;;;;;;;;10.90;99.90;;;;;;7331426;19;111152;-67
2023/05/27 05:24:46;;;;;;;;;;;11.00;99.90;;;;;;7336017;19;109594;-67
2023/05/27 05:27:13;;;;;;;;;;;11.10;99.90;;;;;;7331656;19;110346;-67
2023/05/27 05:29:40;;;;;;;;;;;11.20;99.90;;;;;;7334780;19;111425;-67
2023/05/27 05:32:10;;;;;;;;;;;11.20;99.90;;;;;;7337831;19;109792;-67
2023/05/27 05:34:38;;;;;;;;;;;11.30;99.90;;;;;;7335592;19;110741;-67
2023/05/27 05:37:05;;;;;;;;;;;11.40;99.90;;;;;;7334633;19;109817;-67
2023/05/27 05:39:32;;;;;;;;;;;11.50;99.90;;;;;;7334468;19;110175;-70
2023/05/27 05:41:59;;;;;;;;;;;11.60;99.90;;;;;;7333945;19;111597;-67
2023/05/27 05:44:27;;;;;;;;;;;11.70;99.90;;;;;;7330487;19;110565;-67
2023/05/27 05:46:54;;;;;;;;;;;11.80;99.90;;;;;;7335536;19;109478;-67
2023/05/27 05:49:21;;;;;;;;;;;11.80;99.90;;;;;;7331443;19;111212;-67
2023/05/27 05:51:48;;;;;;;;;;;11.80;99.90;;;;;;7332965;19;110009;-67
2023/05/27 05:54:15;;;;;;;;;;;11.80;99.90;;;;;;7339456;19;111547;-67
2023/05/27 05:56:43;;;;;;;;;;;11.90;99.90;;;;;;7332275;19;109400;-67
2023/05/27 05:59:10;;;;;;;;;;;12.00;99.90;;;;;;7332217;19;112333;-67
2023/05/27 06:01:38;;;;;;;;;;;12.00;99.90;;;;;;7332930;19;110609;-67
2023/05/27 06:04:06;;;;;;;;;;;12.10;99.90;;;;;;7332734;19;111245;-67
2023/05/27 06:06:33;;;;;;;;;;;12.20;99.90;;;;;;7332313;19;110410;-67
2023/05/27 06:09:01;;;;;;;;;;;12.40;99.90;;;;;;7330222;19;110106;-67
2023/05/27 06:11:28;;;;;;;;;;;12.50;99.90;;;;;;7333488;19;110229;-67
2023/05/27 06:13:55;;;;;;;;;;;12.50;99.90;;;;;;7330996;19;111203;-68
2023/05/27 06:16:22;;;;;;;;;;;12.60;99.90;;;;;;7339039;19;111393;-67
2023/05/27 06:18:50;;;;;;;;;;;12.60;99.90;;;;;;7329210;19;110408;-69
2023/05/27 06:21:17;;;;;;;;;;;12.70;99.90;;;;;;7331618;19;110001;-68
2023/05/27 06:23:44;;;;;;;;;;;12.60;99.90;;;;;;7333786;19;110172;-68
2023/05/27 06:26:11;;;;;;;;;;;12.70;99.90;;;;;;7330408;19;111264;-68
2023/05/27 06:28:38;;;;;;;;;;;12.80;99.90;;;;;;7331869;19;110055;-68
2023/05/27 06:31:05;;;;;;;;;;;12.80;99.90;;;;;;7331710;19;109876;-68
2023/05/27 06:33:32;;;;;;;;;;;13.00;99.90;;;;;;7333009;19;110129;-68
2023/05/27 06:35:59;;;;;;;;;;;13.10;99.90;;;;;;7337813;19;111032;-75
2023/05/27 06:38:26;;;;;;;;;;;13.20;99.90;;;;;;7342671;19;112357;-75
2023/05/27 06:40:53;;;;;;;;;;;13.40;99.90;;;;;;7339633;19;111461;-73
2023/05/27 06:43:20;;;;;;;;;;;13.50;99.90;;;;;;7337677;19;112172;-74
2023/05/27 06:45:47;;;;;;;;;;;13.50;99.90;;;;;;7338745;19;109996;-71
2023/05/27 06:48:29;;;;;;;;;;;13.60;99.90;;;;;;7339837;19;111214;-70
2023/05/27 06:50:56;;;;;;;;;;;13.70;99.90;;;;;;7337379;19;110257;-69
2023/05/27 06:53:23;;;;;;;;;;;13.80;99.90;;;;;;7338361;19;110556;-68
2023/05/27 06:55:50;;;;;;;;;;;13.90;99.90;;;;;;7339216;19;112914;-69
2023/05/27 06:58:17;;;;;;;;;;;14.00;99.90;;;;;;7334761;19;111186;-68
2023/05/27 07:00:44;;;;;;;;;;;14.20;99.90;;;;;;7346547;19;109792;-68
2023/05/27 07:03:11;;;;;;;;;;;14.20;99.90;;;;;;7337357;19;110496;-68
2023/05/27 07:05:39;;;;;;;;;;;14.30;99.90;;;;;;7337824;19;110235;-68
2023/05/27 07:08:06;;;;;;;;;;;14.40;99.90;;;;;;7336560;19;111224;-68
2023/05/27 07:10:33;;;;;;;;;;;14.50;99.90;;;;;;7338574;19;109870;-68
2023/05/27 07:13:00;;;;;;;;;;;14.60;99.90;;;;;;7334525;19;113443;-68
2023/05/27 07:15:27;;;;;;;;;;;14.80;99.90;;;;;;7338828;19;113791;-68
2023/05/27 07:17:54;;;;;;;;;;;14.90;99.90;;;;;;7338412;19;109536;-68
2023/05/27 07:20:22;;;;;;;;;;;15.00;99.90;;;;;;7342107;19;109526;-68
2023/05/27 07:22:49;;;;;;;;;;;15.10;99.90;;;;;;7340310;19;110630;-68
2023/05/27 07:25:16;;;;;;;;;;;15.20;99.90;;;;;;7338030;19;111699;-68
2023/05/27 07:27:43;;;;;;;;;;;15.10;99.90;;;;;;7335351;19;111484;-68
2023/05/27 07:30:11;;;;;;;;;;;15.10;99.90;;;;;;7338545;19;109750;-68
2023/05/27 07:32:38;;;;;;;;;;;15.20;99.90;;;;;;7335231;19;114073;-68
2023/05/27 07:35:05;;;;;;;;;;;15.40;99.90;;;;;;7340098;19;111156;-69
2023/05/27 07:37:32;;;;;;;;;;;15.50;99.90;;;;;;7332598;19;110173;-68
2023/05/27 07:40:00;;;;;;;;;;;15.70;99.90;;;;;;7332533;19;114711;-71
2023/05/27 07:42:27;;;;;;;;;;;15.90;99.90;;;;;;7336310;19;110422;-68
2023/05/27 07:44:57;;;;;;;;;;;16.00;99.90;;;;;;7330982;19;110673;-68
2023/05/27 07:47:25;;;;;;;;;;;16.00;99.90;;;;;;7333378;19;113713;-68
2023/05/27 07:49:52;;;;;;;;;;;15.90;99.90;;;;;;7334832;19;109472;-68
2023/05/27 07:52:19;;;;;;;;;;;15.90;99.90;;;;;;7334792;19;110794;-68
2023/05/27 07:54:47;;;;;;;;;;;15.90;99.90;;;;;;7332173;19;112942;-65
2023/05/27 07:57:21;;;;;;;;;;;16.00;99.90;;;;;;7335525;19;109606;-65
2023/05/27 07:59:49;;;;;;;;;;;16.20;99.90;;;;;;7334257;19;109919;-65
2023/05/27 08:02:16;;;;;;;;;;;16.30;99.90;;;;;;7335973;19;110477;-65
2023/05/27 08:04:44;;;;;;;;;;;16.50;99.90;;;;;;7338902;19;109833;-65
2023/05/27 08:07:12;;;;;;;;;;;16.60;99.90;;;;;;7334228;19;110138;-65
2023/05/27 08:09:39;;;;;;;;;;;16.50;99.90;;;;;;7333943;19;110359;-65
2023/05/27 08:12:06;;;;;;;;;;;16.50;99.90;;;;;;7333928;19;109538;-65
2023/05/27 08:14:34;;;;;;;;;;;16.50;99.90;;;;;;7334886;19;110322;-64
2023/05/27 08:17:01;;;;;;;;;;;16.50;99.90;;;;;;7334992;19;109552;-66
2023/05/27 08:19:28;;;;;;;;;;;16.60;99.90;;;;;;7336985;19;111158;-64
2023/05/27 08:21:56;;;;;;;;;;;16.70;99.90;;;;;;7335708;19;110081;-65
2023/05/27 08:24:24;;;;;;;;;;;16.70;99.90;;;;;;7333893;19;110416;-68
2023/05/27 08:26:51;;;;;;;;;;;16.60;99.90;;;;;;7337146;19;110101;-64
2023/05/27 08:29:18;;;;;;;;;;;16.60;99.90;;;;;;7334087;19;110841;-65
2023/05/27 08:31:45;;;;;;;;;;;16.50;99.90;;;;;;7335239;19;110230;-64
2023/05/27 08:34:13;;;;;;;;;;;16.40;99.90;;;;;;7334864;19;116065;-65
2023/05/27 08:36:40;;;;;;;;;;;16.30;99.90;;;;;;7335656;19;109566;-65
2023/05/27 08:39:07;;;;;;;;;;;16.50;99.90;;;;;;7335864;19;110138;-65
2023/05/27 08:41:36;;;;;;;;;;;16.70;99.90;;;;;;7336298;19;110964;-65
2023/05/27 08:44:03;;;;;;;;;;;16.70;99.90;;;;;;7335740;19;110308;-66
2023/05/27 08:46:48;;;;;;;;;;;17.00;99.90;;;;;;7335507;19;112537;-65
2023/05/27 08:49:18;;;;;;;;;;;17.20;99.90;;;;;;7339566;19;110444;-65
2023/05/27 08:51:45;;;;;;;;;;;17.30;99.90;;;;;;7332162;19;112135;-65
2023/05/27 08:54:13;;;;;;;;;;;17.40;99.90;;;;;;7334690;19;111237;-75
2023/05/27 08:56:42;;;;;;;;;;;17.50;99.90;;;;;;7332468;19;109861;-69
2023/05/27 08:59:09;;;;;;;;;;;17.60;99.90;;;;;;7333801;19;109799;-73
2023/05/27 09:01:38;;;;;;;;;;;17.80;99.90;;;;;;7334680;19;110220;-73
2023/05/27 09:04:05;;;;;;;;;;;17.80;99.90;;;;;;7331544;19;114729;-71
2023/05/27 09:06:32;;;;;;;;;;;17.90;99.90;;;;;;7336061;19;111301;-70
2023/05/27 09:08:59;;;;;;;;;;;17.90;99.90;;;;;;7332620;19;110140;-66
2023/05/27 09:11:34;;;;;;;;;;;18.00;99.90;;;;;;7340196;19;110939;-73
2023/05/27 09:14:01;;;;;;;;;;;18.10;99.90;;;;;;7332824;19;110340;-66
2023/05/27 09:16:28;;;;;;;;;;;18.10;99.90;;;;;;7334444;19;109348;-66
2023/05/27 09:18:55;;;;;;;;;;;18.30;99.90;;;;;;7334568;19;113454;-67
2023/05/27 09:21:24;;;;;;;;;;;18.30;99.90;;;;;;7333914;19;111220;-65
2023/05/27 09:23:57;;;;;;;;;;;18.20;99.90;;;;;;7334388;19;110048;-66
2023/05/27 09:26:28;;;;;;;;;;;18.30;99.90;;;;;;7332817;19;110014;-66
2023/05/27 09:28:56;;;;;;;;;;;18.50;99.90;;;;;;7331922;19;110084;-67
2023/05/27 09:31:24;;;;;;;;;;;18.70;99.90;;;;;;7339329;19;110901;-66
2023/05/27 09:33:51;;;;;;;;;;;18.80;99.90;;;;;;7329841;19;110116;-65
2023/05/27 09:36:22;;;;;;;;;;;18.80;99.90;;;;;;7330715;19;109856;-65
2023/05/27 09:38:50;;;;;;;;;;;18.90;99.90;;;;;;7332101;19;109944;-71
2023/05/27 09:41:22;;;;;;;;;;;19.10;99.90;;;;;;7331248;19;110650;-65
2023/05/27 09:43:56;;;;;;;;;;;19.20;99.90;;;;;;7333318;19;109765;-65
2023/05/27 09:46:25;;;;;;;;;;;19.20;99.90;;;;;;7332980;19;110142;-65
2023/05/27 09:48:54;;;;;;;;;;;19.20;99.90;;;;;;7332641;19;112723;-64
2023/05/27 09:51:21;;;;;;;;;;;19.30;99.90;;;;;;7330427;19;109968;-65
2023/05/27 09:53:49;;;;;;;;;;;19.40;99.90;;;;;;7338633;19;109622;-65
2023/05/27 09:56:16;;;;;;;;;;;19.40;99.90;;;;;;7330477;19;109637;-65
2023/05/27 09:58:43;;;;;;;;;;;19.50;99.90;;;;;;7332839;19;110076;-65
2023/05/27 10:01:10;;;;;;;;;;;19.60;99.90;;;;;;7329165;19;113924;-65
2023/05/27 10:03:38;;;;;;;;;;;19.80;99.90;;;;;;7333157;19;110990;-65
2023/05/27 10:06:05;;;;;;;;;;;19.90;99.90;;;;;;7334134;19;109561;-65
2023/05/27 10:08:33;;;;;;;;;;;20.00;99.90;;;;;;7328784;19;111665;-65
2023/05/27 10:11:02;;;;;;;;;;;20.00;99.90;;;;;;7333084;19;110111;-66
2023/05/27 10:13:30;;;;;;;;;;;20.10;99.90;;;;;;7332019;19;110129;-65
2023/05/27 10:15:57;;;;;;;;;;;20.10;99.70;;;;;;7333917;19;111218;-65
2023/05/27 10:18:29;;;;;;;;;;;20.10;99.90;;;;;;7332237;19;111456;-65
2023/05/27 10:21:18;;;;;;;;;;;20.20;99.50;;;;;;7331657;19;112027;-66
2023/05/27 10:23:52;;;;;;;;;;;20.20;98.70;;;;;;7330360;19;111823;-66
2023/05/27 10:26:20;;;;;;;;;;;20.20;98.60;;;;;;7330822;19;109581;-65
2023/05/27 10:28:47;;;;;;;;;;;20.20;98.40;;;;;;7330137;19;110397;-65
2023/05/27 10:31:15;;;;;;;;;;;20.30;99.90;;;;;;7329869;19;112009;-66
2023/05/27 10:33:43;;;;;;;;;;;20.60;99.60;;;;;;7329643;19;110542;-69
2023/05/27 10:36:14;;;;;;;;;;;20.70;98.60;;;;;;7329789;19;110658;-65
2023/05/27 10:38:42;;;;;;;;;;;20.80;97.10;;;;;;7335460;19;109591;-66
2023/05/27 10:41:09;;;;;;;;;;;20.70;98.20;;;;;;7330602;19;110070;-66
2023/05/27 10:43:36;;;;;;;;;;;20.70;97.90;;;;;;7329959;19;110168;-65
2023/05/27 10:46:04;;;;;;;;;;;20.70;98.10;;;;;;7331525;19;110033;-65
2023/05/27 10:48:33;;;;;;;;;;;20.90;98.80;;;;;;7329776;19;110728;-65
2023/05/27 10:51:00;;;;;;;;;;;21.00;98.40;;;;;;7332005;19;110042;-65
2023/05/27 10:53:28;;;;;;;;;;;21.20;98.90;;;;;;7327888;19;109832;-65
2023/05/27 10:55:57;;;;;;;;;;;21.20;97.10;;;;;;7332041;19;115413;-65
2023/05/27 10:58:25;;;;;;;;;;;21.20;97.70;;;;;;7328855;19;110773;-67
2023/05/27 11:00:53;;;;;;;;;;;21.40;97.60;;;;;;7335497;19;110252;-66
2023/05/27 11:03:24;;;;;;;;;;;21.60;98.00;;;;;;7330462;19;109807;-66
2023/05/27 11:05:58;;;;;;;;;;;21.70;96.40;;;;;;7328569;19;109399;-65
2023/05/27 11:08:25;;;;;;;;;;;21.70;95.80;;;;;;7331910;19;111502;-65
2023/05/27 11:11:02;;;;;;;;;;;21.60;96.30;;;;;;7328740;19;109560;-65
2023/05/27 11:13:30;;;;;;;;;;;21.80;96.50;;;;;;7332445;19;109953;-66
2023/05/27 11:15:57;;;;;;;;;;;21.90;96.40;;;;;;7329524;19;109842;-65
2023/05/27 11:18:24;;;;;;;;;;;22.00;94.40;;;;;;7331749;19;109406;-65
2023/05/27 11:20:51;;;;;;;;;;;22.00;94.20;;;;;;7339041;19;109662;-66
2023/05/27 11:23:21;;;;;;;;;;;22.00;94.10;;;;;;7343798;19;110403;-65
2023/05/27 11:25:48;;;;;;;;;;;22.10;96.00;;;;;;7335744;19;111600;-65
2023/05/27 11:28:18;;;;;;;;;;;22.30;95.50;;;;;;7338096;19;110559;-65
2023/05/27 11:30:46;;;;;;;;;;;22.50;94.80;;;;;;7338147;19;110244;-65
2023/05/27 11:33:18;;;;;;;;;;;22.50;95.00;;;;;;7337539;19;109739;-65
2023/05/27 11:36:05;;;;;;;;;;;22.60;94.30;;;;;;7337105;19;111355;-65
2023/05/27 11:38:45;;;;;;;;;;;22.60;93.60;;;;;;7339383;19;110211;-67
2023/05/27 11:41:15;;;;;;;;;;;22.60;93.60;;;;;;7338284;19;111772;-65
2023/05/27 11:43:51;;;;;;;;;;;22.70;92.80;;;;;;7341928;19;110819;-66
2023/05/27 11:46:19;;;;;;;;;;;22.70;93.80;;;;;;7336920;19;112140;-65
2023/05/27 11:48:46;;;;;;;;;;;22.70;92.30;;;;;;7332048;19;110817;-65
2023/05/27 11:51:13;;;;;;;;;;;22.70;92.60;;;;;;7336626;19;110804;-65
2023/05/27 11:53:44;;;;;;;;;;;22.90;92.20;;;;;;7335967;19;110190;-65
2023/05/27 11:56:11;;;;;;;;;;;22.90;92.60;;;;;;7334704;19;110735;-65
2023/05/27 11:58:38;;;;;;;;;;;23.10;93.00;;;;;;7337780;19;109990;-65
2023/05/27 12:01:05;;;;;;;;;;;23.30;91.90;;;;;;7335281;19;111691;-66
2023/05/27 12:03:33;;;;;;;;;;;23.40;92.50;;;;;;7336753;19;110246;-65
2023/05/27 12:06:00;;;;;;;;;;;23.50;92.20;;;;;;7340935;19;110045;-65
2023/05/27 12:08:27;;;;;;;;;;;23.60;92.10;;;;;;7335679;19;110615;-65
2023/05/27 12:10:55;;;;;;;;;;;23.70;90.30;;;;;;7336029;19;111103;-65
2023/05/27 12:13:23;;;;;;;;;;;23.70;90.90;;;;;;7336221;19;109804;-65
2023/05/27 12:15:50;;;;;;;;;;;23.80;91.20;;;;;;7335706;19;111278;-65
2023/05/27 12:18:18;;;;;;;;;;;24.10;92.10;;;;;;7336762;19;109332;-65
2023/05/27 12:20:45;;;;;;;;;;;24.20;90.60;;;;;;7332490;19;110033;-66
2023/05/27 12:23:12;;;;;;;;;;;24.30;90.40;;;;;;7336073;19;110457;-65
2023/05/27 12:25:39;;;;;;;;;;;24.20;89.90;;;;;;7335828;19;109674;-65
2023/05/27 12:28:07;;;;;;;;;;;24.30;90.50;;;;;;7339653;19;109570;-65
2023/05/27 12:30:36;;;;;;;;;;;24.40;90.00;;;;;;7332747;19;109406;-65
2023/05/27 12:33:03;;;;;;;;;;;24.50;88.60;;;;;;7335421;19;110857;-65
2023/05/27 12:35:31;;;;;;;;;;;24.50;85.40;;;;;;7333451;19;110706;-66
2023/05/27 12:37:58;;;;;;;;;;;24.60;90.30;;;;;;7334790;19;111171;-65
2023/05/27 12:40:25;;;;;;;;;;;24.70;88.80;;;;;;7334768;19;109616;-65
2023/05/27 12:42:53;;;;;;;;;;;24.80;88.00;;;;;;7336552;19;111276;-66
2023/05/27 12:45:25;;;;;;;;;;;24.70;83.20;;;;;;7332242;19;111062;-67
2023/05/27 12:47:53;;;;;;;;;;;24.60;82.70;;;;;;7334764;19;111767;-65
2023/05/27 12:50:20;;;;;;;;;;;24.80;87.50;;;;;;7339342;19;111236;-65
2023/05/27 12:52:48;;;;;;;;;;;24.90;82.70;;;;;;7334059;19;110064;-66
2023/05/27 12:55:17;;;;;;;;;;;24.70;81.40;;;;;;7335458;19;110590;-66
2023/05/27 12:57:47;;;;;;;;;;;24.80;84.80;;;;;;7331187;19;110937;-66
2023/05/27 13:00:15;;;;;;;;;;;25.00;82.40;;;;;;7335174;19;109865;-65
2023/05/27 13:02:43;;;;;;;;;;;25.00;80.40;;;;;;7334121;19;110137;-66
2023/05/27 13:05:10;;;;;;;;;;;24.90;83.50;;;;;;7335272;19;109800;-66
2023/05/27 13:07:40;;;;;;;;;;;25.00;85.50;;;;;;7333714;19;110850;-66
2023/05/27 13:10:11;;;;;;;;;;;25.20;83.80;;;;;;7333566;19;111268;-65
2023/05/27 13:12:38;;;;;;;;;;;25.20;80.30;;;;;;7340531;19;109590;-66
2023/05/27 13:15:07;;;;;;;;;;;25.30;82.60;;;;;;7334691;19;110459;-65
2023/05/27 13:17:36;;;;;;;;;;;25.40;83.20;;;;;;7333425;19;110682;-66
2023/05/27 13:20:03;;;;;;;;;;;25.60;79.80;;;;;;7334902;19;110138;-65
2023/05/27 13:22:31;;;;;;;;;;;25.60;76.30;;;;;;7332281;19;110343;-65
2023/05/27 13:24:58;;;;;;;;;;;25.50;77.70;;;;;;7333779;19;109920;-66
2023/05/27 13:27:25;;;;;;;;;;;25.30;75.90;;;;;;7332563;19;111086;-65
2023/05/27 13:29:53;;;;;;;;;;;25.40;77.90;;;;;;7334524;19;111173;-65
2023/05/27 13:32:20;;;;;;;;;;;25.50;81.00;;;;;;7333445;19;112000;-68
2023/05/27 13:34:47;;;;;;;;;;;25.80;82.40;;;;;;7339490;19;111483;-66
2023/05/27 13:37:15;;;;;;;;;;;26.10;82.10;;;;;;7331855;19;110031;-66
2023/05/27 13:39:43;;;;;;;;;;;26.20;80.10;;;;;;7333308;19;109449;-65
2023/05/27 13:42:10;;;;;;;;;;;26.20;75.50;;;;;;7330922;19;111310;-66
2023/05/27 13:47:13;;;;;;;;;;;26.30;77.50;;;;;;7331582;19;109480;-85
2023/05/27 13:49:40;;;;;;;;;;;26.30;75.50;;;;;;7330408;19;114154;-86
2023/05/27 13:52:07;;;;;;;;;;;26.40;76.80;;;;;;7334442;19;109438;-85
2023/05/27 13:54:35;;;;;;;;;;;26.50;78.00;;;;;;7341462;19;109316;-85
2023/05/27 13:57:02;;;;;;;;;;;26.60;72.20;;;;;;7331232;19;110733;-85
2023/05/27 13:59:29;;;;;;;;;;;26.60;75.40;;;;;;7333827;19;110518;-86
2023/05/27 14:01:57;;;;;;;;;;;26.70;76.90;;;;;;7334501;19;111268;-86
2023/05/27 14:04:24;;;;;;;;;;;26.70;73.80;;;;;;7333850;19;111943;-88
2023/05/27 14:06:52;;;;;;;;;;;26.80;73.40;;;;;;7334831;19;110786;-88
2023/05/27 14:09:19;;;;;;;;;;;26.90;74.30;;;;;;7327500;19;111276;-66
2023/05/27 14:11:46;;;;;;;;;;;27.10;75.10;;;;;;7329572;19;111879;-66
2023/05/27 14:14:13;;;;;;;;;;;27.20;77.00;;;;;;7331510;19;109314;-68